Minneapolis, Minnesota
Traffic Map
Current Weather Conditions
Minneapolis, Minnesota
Few Clouds
Few Clouds
64°
Feels Like: 64°
Wind Chill: 64° Ceiling: Unl
Heat Index: 64° Visibility: 9mi
Dew Point: 59° Wind: 3mph
Humidity: 84% Direction: 230° (SW)
Pressure: 30.05in Gusts: 0mph
Raw Report DataKMSP 311253Z 23003KT 9SM FEW300 18/15 A3005 RMK AO2 SLP171 T01780150
Traffic Incident Summary
Active as of:
Severity:
Category:
InformationThere was an issue retrieving the traffic information for this location. Please try a different location or try again shortly.
Advertisements
Track Severe Weather on mobile